sensor_id;sensor_type;location;lat;lon;timestamp;P1;durP1;ratioP1;P2;durP2;ratioP2
18364;SDS011;9309;52.126;11.616;2023-08-21T00:01:26;2.78;;;2.55;;
18364;SDS011;9309;52.126;11.616;2023-08-21T00:03:53;4.05;;;2.50;;
18364;SDS011;9309;52.126;11.616;2023-08-21T00:06:20;5.75;;;3.28;;
18364;SDS011;9309;52.126;11.616;2023-08-21T00:08:46;3.63;;;2.50;;
18364;SDS011;9309;52.126;11.616;2023-08-21T00:11:13;2.78;;;2.58;;
18364;SDS011;9309;52.126;11.616;2023-08-21T00:13:40;3.50;;;3.08;;
18364;SDS011;9309;52.126;11.616;2023-08-21T00:16:11;2.63;;;2.45;;
18364;SDS011;9309;52.126;11.616;2023-08-21T00:18:37;2.92;;;2.72;;
18364;SDS011;9309;52.126;11.616;2023-08-21T00:21:04;3.78;;;2.70;;
18364;SDS011;9309;52.126;11.616;2023-08-21T00:23:31;3.83;;;3.17;;
18364;SDS011;9309;52.126;11.616;2023-08-21T00:25:58;2.97;;;2.72;;
18364;SDS011;9309;52.126;11.616;2023-08-21T00:28:25;2.88;;;2.67;;
18364;SDS011;9309;52.126;11.616;2023-08-21T00:30:52;2.92;;;2.72;;
18364;SDS011;9309;52.126;11.616;2023-08-21T00:33:27;2.97;;;2.78;;
18364;SDS011;9309;52.126;11.616;2023-08-21T00:35:54;3.00;;;2.80;;
18364;SDS011;9309;52.126;11.616;2023-08-21T00:38:22;2.92;;;2.72;;
18364;SDS011;9309;52.126;11.616;2023-08-21T00:40:49;4.22;;;2.83;;
18364;SDS011;9309;52.126;11.616;2023-08-21T00:43:16;3.00;;;2.72;;
18364;SDS011;9309;52.126;11.616;2023-08-21T00:45:44;3.08;;;2.78;;
18364;SDS011;9309;52.126;11.616;2023-08-21T00:50:41;4.35;;;3.38;;
18364;SDS011;9309;52.126;11.616;2023-08-21T00:53:08;3.05;;;2.63;;
18364;SDS011;9309;52.126;11.616;2023-08-21T00:55:36;4.78;;;2.58;;
18364;SDS011;9309;52.126;11.616;2023-08-21T00:58:04;3.38;;;2.80;;
18364;SDS011;9309;52.126;11.616;2023-08-21T01:00:31;2.85;;;2.65;;
18364;SDS011;9309;52.126;11.616;2023-08-21T01:03:00;4.35;;;2.70;;
18364;SDS011;9309;52.126;11.616;2023-08-21T01:05:27;3.13;;;2.55;;
18364;SDS011;9309;52.126;11.616;2023-08-21T01:07:59;4.00;;;2.88;;
18364;SDS011;9309;52.126;11.616;2023-08-21T01:10:32;2.88;;;2.67;;
18364;SDS011;9309;52.126;11.616;2023-08-21T01:13:13;2.72;;;2.60;;
18364;SDS011;9309;52.126;11.616;2023-08-21T01:15:50;3.10;;;2.90;;
18364;SDS011;9309;52.126;11.616;2023-08-21T01:18:18;3.08;;;2.55;;
18364;SDS011;9309;52.126;11.616;2023-08-21T01:20:46;3.30;;;2.97;;
18364;SDS011;9309;52.126;11.616;2023-08-21T01:23:27;2.75;;;2.55;;
18364;SDS011;9309;52.126;11.616;2023-08-21T01:25:55;2.88;;;2.70;;
18364;SDS011;9309;52.126;11.616;2023-08-21T01:28:22;2.15;;;2.05;;
18364;SDS011;9309;52.126;11.616;2023-08-21T01:30:50;2.65;;;2.45;;
18364;SDS011;9309;52.126;11.616;2023-08-21T01:35:49;3.17;;;2.90;;
18364;SDS011;9309;52.126;11.616;2023-08-21T01:38:16;3.55;;;2.60;;
18364;SDS011;9309;52.126;11.616;2023-08-21T01:40:46;3.45;;;2.85;;
18364;SDS011;9309;52.126;11.616;2023-08-21T01:43:13;3.42;;;3.13;;
18364;SDS011;9309;52.126;11.616;2023-08-21T02:05:14;2.72;;;2.53;;
18364;SDS011;9309;52.126;11.616;2023-08-21T02:07:41;4.30;;;2.42;;
18364;SDS011;9309;52.126;11.616;2023-08-21T02:10:08;7.07;;;2.75;;
18364;SDS011;9309;52.126;11.616;2023-08-21T02:12:35;14.05;;;2.75;;
18364;SDS011;9309;52.126;11.616;2023-08-21T02:15:04;2.83;;;2.63;;
18364;SDS011;9309;52.126;11.616;2023-08-21T02:17:32;3.17;;;2.97;;
18364;SDS011;9309;52.126;11.616;2023-08-21T02:19:58;7.90;;;3.47;;
18364;SDS011;9309;52.126;11.616;2023-08-21T02:22:25;2.92;;;2.47;;
18364;SDS011;9309;52.126;11.616;2023-08-21T02:24:52;2.55;;;2.42;;
18364;SDS011;9309;52.126;11.616;2023-08-21T02:27:19;3.28;;;3.08;;
18364;SDS011;9309;52.126;11.616;2023-08-21T02:29:46;2.88;;;2.67;;
18364;SDS011;9309;52.126;11.616;2023-08-21T02:32:14;5.38;;;2.90;;
18364;SDS011;9309;52.126;11.616;2023-08-21T02:34:41;2.92;;;2.83;;
18364;SDS011;9309;52.126;11.616;2023-08-21T02:37:07;4.85;;;3.42;;
18364;SDS011;9309;52.126;11.616;2023-08-21T02:39:34;3.00;;;2.78;;
18364;SDS011;9309;52.126;11.616;2023-08-21T02:42:01;2.72;;;2.63;;
18364;SDS011;9309;52.126;11.616;2023-08-21T02:44:28;2.90;;;2.67;;
18364;SDS011;9309;52.126;11.616;2023-08-21T02:46:54;3.53;;;2.92;;
18364;SDS011;9309;52.126;11.616;2023-08-21T02:49:22;3.05;;;2.80;;
18364;SDS011;9309;52.126;11.616;2023-08-21T02:51:49;3.60;;;3.30;;
18364;SDS011;9309;52.126;11.616;2023-08-21T02:54:16;5.75;;;3.00;;
18364;SDS011;9309;52.126;11.616;2023-08-21T02:56:43;3.08;;;2.80;;
18364;SDS011;9309;52.126;11.616;2023-08-21T02:59:10;2.65;;;2.50;;
18364;SDS011;9309;52.126;11.616;2023-08-21T03:01:36;8.10;;;3.40;;
18364;SDS011;9309;52.126;11.616;2023-08-21T03:04:03;5.32;;;2.80;;
18364;SDS011;9309;52.126;11.616;2023-08-21T03:06:34;3.60;;;3.13;;
18364;SDS011;9309;52.126;11.616;2023-08-21T03:09:01;2.60;;;2.50;;
18364;SDS011;9309;52.126;11.616;2023-08-21T03:11:27;3.15;;;2.95;;
18364;SDS011;9309;52.126;11.616;2023-08-21T03:13:54;2.90;;;2.78;;
18364;SDS011;9309;52.126;11.616;2023-08-21T03:16:21;3.90;;;3.53;;
18364;SDS011;9309;52.126;11.616;2023-08-21T03:18:55;4.93;;;2.92;;
18364;SDS011;9309;52.126;11.616;2023-08-21T03:21:24;2.92;;;2.78;;
18364;SDS011;9309;52.126;11.616;2023-08-21T03:23:54;3.60;;;3.30;;
18364;SDS011;9309;52.126;11.616;2023-08-21T03:26:21;5.43;;;3.20;;
18364;SDS011;9309;52.126;11.616;2023-08-21T03:28:48;2.97;;;2.78;;
18364;SDS011;9309;52.126;11.616;2023-08-21T03:31:15;3.30;;;3.10;;
18364;SDS011;9309;52.126;11.616;2023-08-21T03:33:42;3.25;;;3.00;;
18364;SDS011;9309;52.126;11.616;2023-08-21T03:36:09;3.30;;;3.13;;
18364;SDS011;9309;52.126;11.616;2023-08-21T03:38:36;3.33;;;3.13;;
18364;SDS011;9309;52.126;11.616;2023-08-21T03:41:04;3.17;;;2.80;;
18364;SDS011;9309;52.126;11.616;2023-08-21T03:43:32;2.80;;;2.70;;
18364;SDS011;9309;52.126;11.616;2023-08-21T03:45:59;2.90;;;2.78;;
18364;SDS011;9309;52.126;11.616;2023-08-21T03:48:25;3.35;;;3.15;;
18364;SDS011;9309;52.126;11.616;2023-08-21T03:50:52;3.20;;;2.90;;
18364;SDS011;9309;52.126;11.616;2023-08-21T03:53:19;4.80;;;3.50;;
18364;SDS011;9309;52.126;11.616;2023-08-21T03:55:46;2.80;;;2.40;;
18364;SDS011;9309;52.126;11.616;2023-08-21T03:58:14;3.75;;;2.90;;
18364;SDS011;9309;52.126;11.616;2023-08-21T04:00:41;3.38;;;2.47;;
18364;SDS011;9309;52.126;11.616;2023-08-21T04:03:07;3.20;;;2.90;;
18364;SDS011;9309;52.126;11.616;2023-08-21T04:05:34;3.17;;;3.00;;
18364;SDS011;9309;52.126;11.616;2023-08-21T04:08:01;5.63;;;3.28;;
18364;SDS011;9309;52.126;11.616;2023-08-21T04:10:28;2.78;;;2.58;;
18364;SDS011;9309;52.126;11.616;2023-08-21T04:12:55;3.67;;;3.00;;
18364;SDS011;9309;52.126;11.616;2023-08-21T04:15:23;3.05;;;2.95;;
18364;SDS011;9309;52.126;11.616;2023-08-21T04:17:50;3.58;;;2.78;;
18364;SDS011;9309;52.126;11.616;2023-08-21T04:20:17;2.90;;;2.80;;
18364;SDS011;9309;52.126;11.616;2023-08-21T04:22:44;3.92;;;3.63;;
18364;SDS011;9309;52.126;11.616;2023-08-21T04:25:11;3.20;;;2.90;;
18364;SDS011;9309;52.126;11.616;2023-08-21T04:27:37;3.20;;;3.10;;
18364;SDS011;9309;52.126;11.616;2023-08-21T04:30:08;5.78;;;3.10;;
18364;SDS011;9309;52.126;11.616;2023-08-21T04:32:36;3.28;;;3.03;;
18364;SDS011;9309;52.126;11.616;2023-08-21T04:35:06;3.05;;;2.85;;
18364;SDS011;9309;52.126;11.616;2023-08-21T04:37:42;3.53;;;3.22;;
18364;SDS011;9309;52.126;11.616;2023-08-21T04:40:11;2.83;;;2.72;;
18364;SDS011;9309;52.126;11.616;2023-08-21T04:42:39;4.82;;;3.10;;
18364;SDS011;9309;52.126;11.616;2023-08-21T04:45:07;3.10;;;2.72;;
18364;SDS011;9309;52.126;11.616;2023-08-21T04:47:37;3.65;;;3.35;;
18364;SDS011;9309;52.126;11.616;2023-08-21T04:50:04;4.68;;;3.30;;
18364;SDS011;9309;52.126;11.616;2023-08-21T04:52:32;5.55;;;3.38;;
18364;SDS011;9309;52.126;11.616;2023-08-21T04:54:59;3.47;;;3.17;;
18364;SDS011;9309;52.126;11.616;2023-08-21T04:57:32;3.85;;;3.55;;
18364;SDS011;9309;52.126;11.616;2023-08-21T04:59:59;3.70;;;3.50;;
18364;SDS011;9309;52.126;11.616;2023-08-21T05:02:33;3.85;;;3.10;;
18364;SDS011;9309;52.126;11.616;2023-08-21T05:05:01;3.67;;;3.38;;
18364;SDS011;9309;52.126;11.616;2023-08-21T05:07:29;3.72;;;3.17;;
18364;SDS011;9309;52.126;11.616;2023-08-21T05:09:58;5.18;;;3.50;;
18364;SDS011;9309;52.126;11.616;2023-08-21T05:12:26;3.85;;;3.65;;
18364;SDS011;9309;52.126;11.616;2023-08-21T05:14:53;5.45;;;3.45;;
18364;SDS011;9309;52.126;11.616;2023-08-21T05:17:20;4.45;;;3.25;;
18364;SDS011;9309;52.126;11.616;2023-08-21T05:19:47;2.80;;;2.60;;
18364;SDS011;9309;52.126;11.616;2023-08-21T05:22:15;3.78;;;3.40;;
18364;SDS011;9309;52.126;11.616;2023-08-21T05:24:42;11.40;;;3.25;;
18364;SDS011;9309;52.126;11.616;2023-08-21T05:27:09;2.90;;;2.80;;
18364;SDS011;9309;52.126;11.616;2023-08-21T05:29:35;3.58;;;3.28;;
18364;SDS011;9309;52.126;11.616;2023-08-21T05:32:02;3.67;;;3.33;;
18364;SDS011;9309;52.126;11.616;2023-08-21T05:34:29;8.85;;;3.40;;
18364;SDS011;9309;52.126;11.616;2023-08-21T05:36:56;4.32;;;3.13;;
18364;SDS011;9309;52.126;11.616;2023-08-21T05:39:25;3.65;;;2.42;;
18364;SDS011;9309;52.126;11.616;2023-08-21T05:41:52;2.55;;;2.33;;
18364;SDS011;9309;52.126;11.616;2023-08-21T05:44:19;3.50;;;3.30;;
18364;SDS011;9309;52.126;11.616;2023-08-21T05:46:46;2.88;;;2.72;;
18364;SDS011;9309;52.126;11.616;2023-08-21T05:49:12;3.63;;;2.92;;
18364;SDS011;9309;52.126;11.616;2023-08-21T05:51:39;6.55;;;2.90;;
18364;SDS011;9309;52.126;11.616;2023-08-21T05:54:07;3.55;;;2.95;;
18364;SDS011;9309;52.126;11.616;2023-08-21T05:56:37;3.38;;;3.17;;
18364;SDS011;9309;52.126;11.616;2023-08-21T05:59:04;2.75;;;2.63;;
18364;SDS011;9309;52.126;11.616;2023-08-21T06:01:30;5.00;;;2.72;;
18364;SDS011;9309;52.126;11.616;2023-08-21T06:03:57;4.70;;;2.90;;
18364;SDS011;9309;52.126;11.616;2023-08-21T06:06:39;5.10;;;2.95;;
18364;SDS011;9309;52.126;11.616;2023-08-21T06:09:06;4.18;;;2.67;;
18364;SDS011;9309;52.126;11.616;2023-08-21T06:11:33;2.90;;;2.60;;
18364;SDS011;9309;52.126;11.616;2023-08-21T06:14:01;4.72;;;3.22;;
18364;SDS011;9309;52.126;11.616;2023-08-21T06:16:28;6.40;;;2.60;;
18364;SDS011;9309;52.126;11.616;2023-08-21T06:18:55;4.63;;;2.90;;
18364;SDS011;9309;52.126;11.616;2023-08-21T06:21:25;3.05;;;2.60;;
18364;SDS011;9309;52.126;11.616;2023-08-21T06:23:51;3.92;;;2.40;;
18364;SDS011;9309;52.126;11.616;2023-08-21T06:26:19;3.08;;;2.58;;
18364;SDS011;9309;52.126;11.616;2023-08-21T06:28:46;2.88;;;2.67;;
18364;SDS011;9309;52.126;11.616;2023-08-21T06:31:14;2.40;;;2.20;;
18364;SDS011;9309;52.126;11.616;2023-08-21T06:33:41;3.22;;;2.67;;
18364;SDS011;9309;52.126;11.616;2023-08-21T06:36:08;2.30;;;2.20;;
18364;SDS011;9309;52.126;11.616;2023-08-21T06:38:36;3.10;;;2.60;;
18364;SDS011;9309;52.126;11.616;2023-08-21T06:41:02;2.72;;;2.45;;
18364;SDS011;9309;52.126;11.616;2023-08-21T06:43:29;2.92;;;2.70;;
18364;SDS011;9309;52.126;11.616;2023-08-21T06:45:56;2.85;;;2.75;;
18364;SDS011;9309;52.126;11.616;2023-08-21T06:48:24;2.30;;;2.20;;
18364;SDS011;9309;52.126;11.616;2023-08-21T06:50:51;2.63;;;2.40;;
18364;SDS011;9309;52.126;11.616;2023-08-21T06:53:18;2.55;;;2.45;;
18364;SDS011;9309;52.126;11.616;2023-08-21T06:55:44;2.95;;;2.67;;
18364;SDS011;9309;52.126;11.616;2023-08-21T06:58:11;4.65;;;2.47;;
18364;SDS011;9309;52.126;11.616;2023-08-21T07:00:38;2.75;;;2.55;;
18364;SDS011;9309;52.126;11.616;2023-08-21T07:03:05;2.25;;;2.13;;
18364;SDS011;9309;52.126;11.616;2023-08-21T07:05:33;3.30;;;2.58;;
18364;SDS011;9309;52.126;11.616;2023-08-21T07:08:01;2.97;;;2.78;;
18364;SDS011;9309;52.126;11.616;2023-08-21T07:10:28;2.38;;;2.28;;
18364;SDS011;9309;52.126;11.616;2023-08-21T07:12:55;2.50;;;2.35;;
18364;SDS011;9309;52.126;11.616;2023-08-21T07:15:22;3.15;;;2.83;;
18364;SDS011;9309;52.126;11.616;2023-08-21T07:17:48;3.33;;;2.05;;
18364;SDS011;9309;52.126;11.616;2023-08-21T07:20:15;2.65;;;2.45;;
18364;SDS011;9309;52.126;11.616;2023-08-21T07:22:43;2.38;;;2.28;;
18364;SDS011;9309;52.126;11.616;2023-08-21T07:25:11;1.90;;;1.80;;
18364;SDS011;9309;52.126;11.616;2023-08-21T07:27:38;1.70;;;1.70;;
18364;SDS011;9309;52.126;11.616;2023-08-21T07:30:06;1.98;;;1.70;;
18364;SDS011;9309;52.126;11.616;2023-08-21T07:32:33;1.95;;;1.80;;
18364;SDS011;9309;52.126;11.616;2023-08-21T07:35:00;1.63;;;1.63;;
18364;SDS011;9309;52.126;11.616;2023-08-21T07:37:27;1.63;;;1.60;;
18364;SDS011;9309;52.126;11.616;2023-08-21T07:39:56;1.55;;;1.55;;
18364;SDS011;9309;52.126;11.616;2023-08-21T07:42:23;1.75;;;1.50;;
18364;SDS011;9309;52.126;11.616;2023-08-21T07:44:49;1.58;;;1.48;;
18364;SDS011;9309;52.126;11.616;2023-08-21T07:47:16;1.70;;;1.17;;
18364;SDS011;9309;52.126;11.616;2023-08-21T07:49:43;1.40;;;1.30;;
18364;SDS011;9309;52.126;11.616;2023-08-21T07:52:09;1.80;;;1.20;;
18364;SDS011;9309;52.126;11.616;2023-08-21T07:54:36;1.38;;;1.38;;
18364;SDS011;9309;52.126;11.616;2023-08-21T07:57:04;1.20;;;1.20;;
18364;SDS011;9309;52.126;11.616;2023-08-21T07:59:31;0.90;;;0.90;;
18364;SDS011;9309;52.126;11.616;2023-08-21T08:01:58;1.08;;;1.05;;
18364;SDS011;9309;52.126;11.616;2023-08-21T08:04:25;1.98;;;1.20;;
18364;SDS011;9309;52.126;11.616;2023-08-21T08:06:52;2.30;;;1.67;;
18364;SDS011;9309;52.126;11.616;2023-08-21T08:09:19;0.90;;;0.90;;
18364;SDS011;9309;52.126;11.616;2023-08-21T08:11:45;1.10;;;1.00;;
18364;SDS011;9309;52.126;11.616;2023-08-21T08:14:13;1.10;;;1.00;;
18364;SDS011;9309;52.126;11.616;2023-08-21T08:16:40;1.38;;;1.30;;
18364;SDS011;9309;52.126;11.616;2023-08-21T08:19:07;1.10;;;1.10;;
18364;SDS011;9309;52.126;11.616;2023-08-21T08:21:34;1.08;;;1.08;;
18364;SDS011;9309;52.126;11.616;2023-08-21T08:24:01;1.48;;;1.42;;
18364;SDS011;9309;52.126;11.616;2023-08-21T08:26:28;1.35;;;1.25;;
18364;SDS011;9309;52.126;11.616;2023-08-21T08:28:55;1.75;;;1.65;;
18364;SDS011;9309;52.126;11.616;2023-08-21T08:31:23;1.20;;;1.20;;
18364;SDS011;9309;52.126;11.616;2023-08-21T08:33:52;1.38;;;1.27;;
18364;SDS011;9309;52.126;11.616;2023-08-21T08:36:19;1.33;;;1.30;;
18364;SDS011;9309;52.126;11.616;2023-08-21T08:38:46;1.40;;;1.30;;
18364;SDS011;9309;52.126;11.616;2023-08-21T08:41:14;2.50;;;1.30;;
18364;SDS011;9309;52.126;11.616;2023-08-21T08:43:50;1.55;;;1.45;;
18364;SDS011;9309;52.126;11.616;2023-08-21T08:46:19;2.15;;;1.33;;
18364;SDS011;9309;52.126;11.616;2023-08-21T08:48:47;1.55;;;1.55;;
18364;SDS011;9309;52.126;11.616;2023-08-21T08:51:14;1.15;;;1.15;;
18364;SDS011;9309;52.126;11.616;2023-08-21T08:53:41;1.85;;;1.38;;
18364;SDS011;9309;52.126;11.616;2023-08-21T08:56:09;1.40;;;1.30;;
18364;SDS011;9309;52.126;11.616;2023-08-21T08:58:36;1.50;;;1.40;;
18364;SDS011;9309;52.126;11.616;2023-08-21T09:01:03;1.60;;;1.42;;
18364;SDS011;9309;52.126;11.616;2023-08-21T09:03:29;1.80;;;1.33;;
18364;SDS011;9309;52.126;11.616;2023-08-21T09:05:58;2.25;;;1.35;;
18364;SDS011;9309;52.126;11.616;2023-08-21T09:08:25;1.40;;;1.40;;
18364;SDS011;9309;52.126;11.616;2023-08-21T09:10:52;4.15;;;2.28;;
18364;SDS011;9309;52.126;11.616;2023-08-21T09:13:20;1.42;;;1.33;;
18364;SDS011;9309;52.126;11.616;2023-08-21T09:15:47;6.80;;;1.65;;
18364;SDS011;9309;52.126;11.616;2023-08-21T09:18:15;1.38;;;1.38;;
18364;SDS011;9309;52.126;11.616;2023-08-21T09:20:42;3.20;;;2.03;;
18364;SDS011;9309;52.126;11.616;2023-08-21T09:23:14;1.00;;;1.00;;
18364;SDS011;9309;52.126;11.616;2023-08-21T09:25:41;2.03;;;1.33;;
18364;SDS011;9309;52.126;11.616;2023-08-21T09:28:12;1.30;;;1.25;;
18364;SDS011;9309;52.126;11.616;2023-08-21T09:30:46;1.98;;;1.35;;
18364;SDS011;9309;52.126;11.616;2023-08-21T09:33:14;1.88;;;1.30;;
18364;SDS011;9309;52.126;11.616;2023-08-21T09:35:43;1.13;;;1.13;;
18364;SDS011;9309;52.126;11.616;2023-08-21T09:38:10;1.75;;;1.10;;
18364;SDS011;9309;52.126;11.616;2023-08-21T09:40:40;1.33;;;1.33;;
18364;SDS011;9309;52.126;11.616;2023-08-21T09:43:08;1.40;;;1.40;;
18364;SDS011;9309;52.126;11.616;2023-08-21T09:45:36;1.52;;;1.50;;
18364;SDS011;9309;52.126;11.616;2023-08-21T09:48:03;1.23;;;1.23;;
18364;SDS011;9309;52.126;11.616;2023-08-21T09:50:30;1.30;;;1.30;;
18364;SDS011;9309;52.126;11.616;2023-08-21T09:53:06;1.23;;;1.23;;
18364;SDS011;9309;52.126;11.616;2023-08-21T09:55:33;1.17;;;1.17;;
18364;SDS011;9309;52.126;11.616;2023-08-21T09:58:01;1.42;;;1.42;;
18364;SDS011;9309;52.126;11.616;2023-08-21T10:00:29;1.23;;;1.23;;
18364;SDS011;9309;52.126;11.616;2023-08-21T10:02:59;1.33;;;1.33;;
18364;SDS011;9309;52.126;11.616;2023-08-21T10:05:28;1.10;;;1.08;;
18364;SDS011;9309;52.126;11.616;2023-08-21T10:07:55;2.38;;;1.45;;
18364;SDS011;9309;52.126;11.616;2023-08-21T10:10:24;1.00;;;1.00;;
18364;SDS011;9309;52.126;11.616;2023-08-21T10:12:51;3.83;;;1.60;;
18364;SDS011;9309;52.126;11.616;2023-08-21T10:15:18;1.42;;;1.30;;
18364;SDS011;9309;52.126;11.616;2023-08-21T10:17:45;1.05;;;1.05;;
18364;SDS011;9309;52.126;11.616;2023-08-21T10:20:11;1.17;;;1.10;;
18364;SDS011;9309;52.126;11.616;2023-08-21T10:22:39;1.85;;;1.33;;
18364;SDS011;9309;52.126;11.616;2023-08-21T10:25:15;1.00;;;1.00;;
18364;SDS011;9309;52.126;11.616;2023-08-21T10:27:46;1.20;;;1.10;;
18364;SDS011;9309;52.126;11.616;2023-08-21T10:30:19;1.40;;;1.40;;
18364;SDS011;9309;52.126;11.616;2023-08-21T10:32:47;2.22;;;1.05;;
18364;SDS011;9309;52.126;11.616;2023-08-21T10:35:15;1.60;;;1.50;;
18364;SDS011;9309;52.126;11.616;2023-08-21T10:40:33;3.22;;;1.55;;
18364;SDS011;9309;52.126;11.616;2023-08-21T10:43:01;1.05;;;0.90;;
18364;SDS011;9309;52.126;11.616;2023-08-21T10:45:28;2.30;;;1.20;;
18364;SDS011;9309;52.126;11.616;2023-08-21T10:47:56;1.10;;;1.10;;
18364;SDS011;9309;52.126;11.616;2023-08-21T10:50:23;2.35;;;1.40;;
18364;SDS011;9309;52.126;11.616;2023-08-21T10:52:51;2.83;;;1.20;;
18364;SDS011;9309;52.126;11.616;2023-08-21T10:55:18;1.17;;;1.08;;
18364;SDS011;9309;52.126;11.616;2023-08-21T10:57:46;2.28;;;1.42;;
18364;SDS011;9309;52.126;11.616;2023-08-21T11:00:15;2.50;;;1.00;;
18364;SDS011;9309;52.126;11.616;2023-08-21T11:02:43;1.10;;;1.10;;
18364;SDS011;9309;52.126;11.616;2023-08-21T11:05:12;1.95;;;1.33;;
18364;SDS011;9309;52.126;11.616;2023-08-21T11:07:41;0.95;;;0.95;;
18364;SDS011;9309;52.126;11.616;2023-08-21T11:10:10;6.28;;;1.27;;
18364;SDS011;9309;52.126;11.616;2023-08-21T11:12:47;0.80;;;0.80;;
18364;SDS011;9309;52.126;11.616;2023-08-21T11:15:17;1.48;;;1.40;;
18364;SDS011;9309;52.126;11.616;2023-08-21T11:17:50;0.95;;;0.95;;
18364;SDS011;9309;52.126;11.616;2023-08-21T11:20:18;1.23;;;1.23;;
18364;SDS011;9309;52.126;11.616;2023-08-21T11:22:45;0.90;;;0.90;;
18364;SDS011;9309;52.126;11.616;2023-08-21T11:25:11;0.80;;;0.80;;
18364;SDS011;9309;52.126;11.616;2023-08-21T11:27:40;2.92;;;1.02;;
18364;SDS011;9309;52.126;11.616;2023-08-21T11:30:07;1.08;;;1.08;;
18364;SDS011;9309;52.126;11.616;2023-08-21T11:32:38;0.90;;;0.90;;
18364;SDS011;9309;52.126;11.616;2023-08-21T11:35:05;2.13;;;1.48;;
18364;SDS011;9309;52.126;11.616;2023-08-21T11:37:33;0.98;;;0.98;;
18364;SDS011;9309;52.126;11.616;2023-08-21T11:39:59;1.65;;;1.23;;
18364;SDS011;9309;52.126;11.616;2023-08-21T11:42:33;2.85;;;0.82;;
18364;SDS011;9309;52.126;11.616;2023-08-21T11:45:00;1.10;;;1.00;;
18364;SDS011;9309;52.126;11.616;2023-08-21T11:47:30;2.05;;;1.00;;
18364;SDS011;9309;52.126;11.616;2023-08-21T11:50:01;0.80;;;0.80;;
18364;SDS011;9309;52.126;11.616;2023-08-21T11:52:29;1.45;;;1.05;;
18364;SDS011;9309;52.126;11.616;2023-08-21T11:54:57;0.93;;;0.93;;
18364;SDS011;9309;52.126;11.616;2023-08-21T11:57:24;0.73;;;0.73;;
18364;SDS011;9309;52.126;11.616;2023-08-21T11:59:51;1.08;;;1.08;;
18364;SDS011;9309;52.126;11.616;2023-08-21T12:02:21;2.17;;;1.05;;
18364;SDS011;9309;52.126;11.616;2023-08-21T12:04:51;0.90;;;0.90;;
18364;SDS011;9309;52.126;11.616;2023-08-21T12:07:20;0.90;;;0.90;;
18364;SDS011;9309;52.126;11.616;2023-08-21T12:09:47;0.80;;;0.80;;
18364;SDS011;9309;52.126;11.616;2023-08-21T12:12:14;1.98;;;1.05;;
18364;SDS011;9309;52.126;11.616;2023-08-21T12:14:41;0.80;;;0.80;;
18364;SDS011;9309;52.126;11.616;2023-08-21T12:17:07;3.45;;;1.65;;
18364;SDS011;9309;52.126;11.616;2023-08-21T12:19:34;2.90;;;0.88;;
18364;SDS011;9309;52.126;11.616;2023-08-21T12:22:01;5.13;;;1.08;;
18364;SDS011;9309;52.126;11.616;2023-08-21T12:24:30;0.98;;;0.82;;
18364;SDS011;9309;52.126;11.616;2023-08-21T12:26:57;0.95;;;0.95;;
18364;SDS011;9309;52.126;11.616;2023-08-21T12:29:23;0.82;;;0.80;;
18364;SDS011;9309;52.126;11.616;2023-08-21T12:31:50;2.92;;;1.17;;
18364;SDS011;9309;52.126;11.616;2023-08-21T12:34:17;0.95;;;0.80;;
18364;SDS011;9309;52.126;11.616;2023-08-21T12:36:44;1.15;;;0.80;;
18364;SDS011;9309;52.126;11.616;2023-08-21T12:39:11;0.63;;;0.63;;
18364;SDS011;9309;52.126;11.616;2023-08-21T12:41:40;0.73;;;0.73;;
18364;SDS011;9309;52.126;11.616;2023-08-21T12:44:07;0.50;;;0.30;;
18364;SDS011;9309;52.126;11.616;2023-08-21T12:46:34;0.55;;;0.55;;
18364;SDS011;9309;52.126;11.616;2023-08-21T12:49:01;0.70;;;0.70;;
18364;SDS011;9309;52.126;11.616;2023-08-21T12:51:29;1.17;;;1.17;;
18364;SDS011;9309;52.126;11.616;2023-08-21T12:53:56;0.75;;;0.75;;
18364;SDS011;9309;52.126;11.616;2023-08-21T12:56:23;0.55;;;0.55;;
18364;SDS011;9309;52.126;11.616;2023-08-21T12:58:51;0.60;;;0.60;;
18364;SDS011;9309;52.126;11.616;2023-08-21T13:01:18;0.88;;;0.70;;
18364;SDS011;9309;52.126;11.616;2023-08-21T13:03:45;0.75;;;0.70;;
18364;SDS011;9309;52.126;11.616;2023-08-21T13:06:12;1.10;;;0.70;;
18364;SDS011;9309;52.126;11.616;2023-08-21T13:08:39;1.65;;;0.70;;
18364;SDS011;9309;52.126;11.616;2023-08-21T13:11:06;1.42;;;0.80;;
18364;SDS011;9309;52.126;11.616;2023-08-21T13:13:33;1.02;;;0.65;;
18364;SDS011;9309;52.126;11.616;2023-08-21T13:16:01;1.35;;;0.88;;
18364;SDS011;9309;52.126;11.616;2023-08-21T13:18:28;0.68;;;0.68;;
18364;SDS011;9309;52.126;11.616;2023-08-21T13:20:55;0.90;;;0.80;;
18364;SDS011;9309;52.126;11.616;2023-08-21T13:23:22;0.63;;;0.63;;
18364;SDS011;9309;52.126;11.616;2023-08-21T13:25:48;2.20;;;1.00;;
18364;SDS011;9309;52.126;11.616;2023-08-21T13:28:15;0.60;;;0.55;;
18364;SDS011;9309;52.126;11.616;2023-08-21T13:30:42;0.77;;;0.70;;
18364;SDS011;9309;52.126;11.616;2023-08-21T13:33:10;1.45;;;0.80;;
18364;SDS011;9309;52.126;11.616;2023-08-21T13:35:37;0.70;;;0.70;;
18364;SDS011;9309;52.126;11.616;2023-08-21T13:38:04;0.95;;;0.73;;
18364;SDS011;9309;52.126;11.616;2023-08-21T13:40:31;1.25;;;1.25;;
18364;SDS011;9309;52.126;11.616;2023-08-21T13:42:58;0.82;;;0.50;;
18364;SDS011;9309;52.126;11.616;2023-08-21T13:45:25;0.85;;;0.80;;
18364;SDS011;9309;52.126;11.616;2023-08-21T13:47:52;1.05;;;0.60;;
18364;SDS011;9309;52.126;11.616;2023-08-21T13:50:20;5.10;;;0.68;;
18364;SDS011;9309;52.126;11.616;2023-08-21T13:52:47;1.00;;;1.00;;
18364;SDS011;9309;52.126;11.616;2023-08-21T13:55:14;0.73;;;0.60;;
18364;SDS011;9309;52.126;11.616;2023-08-21T13:57:41;0.88;;;0.55;;
18364;SDS011;9309;52.126;11.616;2023-08-21T14:00:08;1.33;;;1.00;;
18364;SDS011;9309;52.126;11.616;2023-08-21T14:02:38;0.60;;;0.60;;
18364;SDS011;9309;52.126;11.616;2023-08-21T14:05:06;0.82;;;0.77;;
18364;SDS011;9309;52.126;11.616;2023-08-21T14:07:35;0.70;;;0.70;;
18364;SDS011;9309;52.126;11.616;2023-08-21T14:10:02;0.90;;;0.73;;
18364;SDS011;9309;52.126;11.616;2023-08-21T14:12:31;0.77;;;0.73;;
18364;SDS011;9309;52.126;11.616;2023-08-21T14:14:58;1.00;;;0.88;;
18364;SDS011;9309;52.126;11.616;2023-08-21T14:17:25;1.30;;;0.88;;
18364;SDS011;9309;52.126;11.616;2023-08-21T14:19:52;2.63;;;0.60;;
18364;SDS011;9309;52.126;11.616;2023-08-21T14:22:19;2.17;;;0.80;;
18364;SDS011;9309;52.126;11.616;2023-08-21T14:24:47;4.25;;;0.80;;
18364;SDS011;9309;52.126;11.616;2023-08-21T14:27:14;1.60;;;0.88;;
18364;SDS011;9309;52.126;11.616;2023-08-21T14:29:41;0.80;;;0.80;;
18364;SDS011;9309;52.126;11.616;2023-08-21T14:32:08;3.45;;;1.30;;
18364;SDS011;9309;52.126;11.616;2023-08-21T14:34:35;0.77;;;0.77;;
18364;SDS011;9309;52.126;11.616;2023-08-21T14:37:02;1.30;;;1.20;;
18364;SDS011;9309;52.126;11.616;2023-08-21T14:39:29;1.30;;;0.85;;
18364;SDS011;9309;52.126;11.616;2023-08-21T14:41:57;0.63;;;0.63;;
18364;SDS011;9309;52.126;11.616;2023-08-21T14:44:25;0.60;;;0.60;;
18364;SDS011;9309;52.126;11.616;2023-08-21T14:46:52;1.50;;;0.90;;
18364;SDS011;9309;52.126;11.616;2023-08-21T14:49:20;0.90;;;0.90;;
18364;SDS011;9309;52.126;11.616;2023-08-21T14:51:47;1.17;;;1.00;;
18364;SDS011;9309;52.126;11.616;2023-08-21T14:54:14;0.95;;;0.93;;
18364;SDS011;9309;52.126;11.616;2023-08-21T14:56:41;1.85;;;0.82;;
18364;SDS011;9309;52.126;11.616;2023-08-21T14:59:09;0.75;;;0.75;;
18364;SDS011;9309;52.126;11.616;2023-08-21T15:01:36;1.55;;;0.80;;
18364;SDS011;9309;52.126;11.616;2023-08-21T15:04:03;0.75;;;0.75;;
18364;SDS011;9309;52.126;11.616;2023-08-21T15:06:30;0.82;;;0.82;;
18364;SDS011;9309;52.126;11.616;2023-08-21T15:08:57;0.93;;;0.93;;
18364;SDS011;9309;52.126;11.616;2023-08-21T15:11:24;0.70;;;0.70;;
18364;SDS011;9309;52.126;11.616;2023-08-21T15:13:50;4.95;;;0.80;;
18364;SDS011;9309;52.126;11.616;2023-08-21T15:16:18;1.63;;;0.98;;
18364;SDS011;9309;52.126;11.616;2023-08-21T15:18:45;2.95;;;1.00;;